Time;durP1;ratioP1;P1;durP2;ratioP2;P2;SDS_P1;SDS_P2;PMS_P1;PMS_P2;Temp;Humidity;BMP_temperature;BMP_pressure;BME280_temperature;BME280_humidity;BME280_pressure;Samples;Min_cycle;Max_cycle;Signal;HPM_P1;HPM_P2
2022/08/21 00:02:19;;;;;;;;;;;;;;;20.56;100.00;99040.97;5092536;28;1001;-62
2022/08/21 00:04:46;;;;;;;;;;;;;;;20.48;100.00;99046.22;5091229;28;1894;-62
2022/08/21 00:07:13;;;;;;;;;;;;;;;20.40;100.00;99036.69;5092448;28;956;-62
2022/08/21 00:09:40;;;;;;;;;;;;;;;20.33;100.00;99037.88;5092774;28;786;-62
2022/08/21 00:12:07;;;;;;;;;;;;;;;20.28;100.00;99034.97;5092164;28;1240;-62
2022/08/21 00:14:34;;;;;;;;;;;;;;;20.41;100.00;99029.78;5092324;28;848;-62
2022/08/21 00:17:01;;;;;;;;;;;;;;;20.56;100.00;99035.34;5092232;28;806;-62
2022/08/21 00:19:27;;;;;;;;;;;;;;;20.63;100.00;99029.34;5092528;28;884;-62
2022/08/21 00:21:54;;;;;;;;;;;;;;;20.69;100.00;99029.41;5092477;28;857;-62
2022/08/21 00:24:22;;;;;;;;;;;;;;;20.75;100.00;99024.66;5092540;28;1965;-62
2022/08/21 00:26:48;;;;;;;;;;;;;;;20.63;100.00;99020.16;5092137;28;858;-62
2022/08/21 00:29:16;;;;;;;;;;;;;;;20.43;100.00;99018.84;5092199;28;818;-62
2022/08/21 00:31:43;;;;;;;;;;;;;;;20.25;100.00;99016.28;5090859;28;1517;-62
2022/08/21 00:34:10;;;;;;;;;;;;;;;20.12;100.00;99005.38;5091987;28;857;-62
2022/08/21 00:36:36;;;;;;;;;;;;;;;20.02;100.00;99009.59;5092054;28;798;-62
2022/08/21 00:39:04;;;;;;;;;;;;;;;19.96;100.00;99009.50;5091913;28;822;-63
2022/08/21 00:41:31;;;;;;;;;;;;;;;19.90;100.00;99012.19;5091911;28;846;-62
2022/08/21 00:43:58;;;;;;;;;;;;;;;19.84;100.00;99013.38;5091787;28;1893;-62
2022/08/21 00:46:25;;;;;;;;;;;;;;;19.76;100.00;99013.78;5091884;28;823;-62
2022/08/21 00:48:51;;;;;;;;;;;;;;;19.72;100.00;99021.63;5092044;28;782;-62
2022/08/21 00:51:25;;;;;;;;;;;;;;;19.70;100.00;99015.72;5091837;28;873;-62
2022/08/21 00:53:57;;;;;;;;;;;;;;;19.65;100.00;99010.78;5091729;28;897;-62
2022/08/21 00:56:24;;;;;;;;;;;;;;;19.61;100.00;99013.00;5092285;28;814;-62
2022/08/21 00:58:51;;;;;;;;;;;;;;;19.56;100.00;99020.03;5091860;28;805;-62
2022/08/21 01:01:17;;;;;;;;;;;;;;;19.53;100.00;99015.41;5090478;28;814;-62
2022/08/21 01:03:45;;;;;;;;;;;;;;;19.50;100.00;99012.78;5091841;28;1945;-62
2022/08/21 01:06:11;;;;;;;;;;;;;;;19.48;100.00;99016.09;5091909;28;794;-62
2022/08/21 01:08:38;;;;;;;;;;;;;;;19.43;100.00;99015.97;5091632;28;876;-62
2022/08/21 01:11:05;;;;;;;;;;;;;;;19.39;100.00;99016.16;5091271;28;1304;-62
2022/08/21 01:13:34;;;;;;;;;;;;;;;19.35;100.00;99012.78;5091584;28;877;-62
2022/08/21 01:16:02;;;;;;;;;;;;;;;19.27;100.00;99011.63;5092529;28;810;-62
2022/08/21 01:18:29;;;;;;;;;;;;;;;19.23;100.00;99013.84;5091697;28;830;-62
2022/08/21 01:21:06;;;;;;;;;;;;;;;19.17;100.00;99008.91;5091804;28;779;-62
2022/08/21 01:23:34;;;;;;;;;;;;;;;19.13;100.00;99011.13;5091405;28;1906;-62
2022/08/21 01:26:02;;;;;;;;;;;;;;;19.11;100.00;99018.44;5091449;28;983;-62
2022/08/21 01:28:30;;;;;;;;;;;;;;;19.06;100.00;99013.53;5091669;28;809;-62
2022/08/21 01:30:58;;;;;;;;;;;;;;;19.02;100.00;99018.53;5091666;28;857;-62
2022/08/21 01:33:25;;;;;;;;;;;;;;;18.97;100.00;99012.34;5091401;28;865;-62
2022/08/21 01:35:51;;;;;;;;;;;;;;;19.12;100.00;99003.97;5091443;28;857;-62
2022/08/21 01:38:18;;;;;;;;;;;;;;;19.24;100.00;99004.19;5091288;28;901;-62
2022/08/21 01:40:45;;;;;;;;;;;;;;;19.43;100.00;99007.56;5091307;28;874;-62
2022/08/21 01:43:12;;;;;;;;;;;;;;;19.71;100.00;99005.28;5091524;28;1882;-62
2022/08/21 01:45:38;;;;;;;;;;;;;;;19.94;100.00;98995.94;5091131;28;854;-62
2022/08/21 01:48:05;;;;;;;;;;;;;;;20.13;100.00;98992.91;5091289;28;802;-62
2022/08/21 01:50:32;;;;;;;;;;;;;;;20.24;100.00;98992.31;5091198;28;810;-62
2022/08/21 01:52:58;;;;;;;;;;;;;;;20.29;100.00;98992.41;5091157;28;893;-62
2022/08/21 01:55:25;;;;;;;;;;;;;;;20.31;100.00;98986.28;5091147;28;826;-62
2022/08/21 01:57:51;;;;;;;;;;;;;;;20.30;100.00;98990.34;5091466;28;822;-62
2022/08/21 02:00:19;;;;;;;;;;;;;;;20.31;100.00;98991.88;5091078;28;834;-62
2022/08/21 02:02:46;;;;;;;;;;;;;;;20.26;100.00;98984.94;5091177;28;1886;-62
2022/08/21 02:05:13;;;;;;;;;;;;;;;20.15;100.00;98977.13;5089821;28;1285;-62
2022/08/21 02:07:40;;;;;;;;;;;;;;;20.06;100.00;98977.28;5089741;28;1313;-62
2022/08/21 02:10:09;;;;;;;;;;;;;;;20.03;100.00;98978.22;5089754;28;1240;-62
2022/08/21 02:12:35;;;;;;;;;;;;;;;19.91;100.00;98980.13;5094399;28;1261;-62
2022/08/21 02:15:03;;;;;;;;;;;;;;;19.78;100.00;98974.81;5094555;28;818;-62
2022/08/21 02:17:37;;;;;;;;;;;;;;;19.73;100.00;98977.53;5094606;28;786;-62
2022/08/21 02:20:04;;;;;;;;;;;;;;;19.68;100.00;98976.16;5095140;28;767;-62
2022/08/21 02:22:30;;;;;;;;;;;;;;;19.63;100.00;98978.84;5094800;28;865;-62
2022/08/21 02:24:57;;;;;;;;;;;;;;;19.57;100.00;98984.38;5093544;28;1913;-62
2022/08/21 02:27:24;;;;;;;;;;;;;;;19.56;100.00;98978.00;5094481;28;834;-62
2022/08/21 02:29:52;;;;;;;;;;;;;;;19.56;100.00;98975.19;5094826;28;812;-62
2022/08/21 02:32:18;;;;;;;;;;;;;;;19.57;100.00;98975.97;5094959;28;798;-62
2022/08/21 02:34:45;;;;;;;;;;;;;;;19.54;100.00;98974.13;5095129;28;806;-62
2022/08/21 02:37:12;;;;;;;;;;;;;;;19.57;100.00;98965.53;5094816;28;853;-62
2022/08/21 02:39:38;;;;;;;;;;;;;;;19.73;100.00;98966.31;5092898;28;1562;-62
2022/08/21 02:42:05;;;;;;;;;;;;;;;19.97;100.00;98963.34;5094182;28;853;-62
2022/08/21 02:44:32;;;;;;;;;;;;;;;20.18;100.00;98973.38;5093844;28;1965;-62
2022/08/21 02:46:58;;;;;;;;;;;;;;;20.34;100.00;98971.28;5094288;28;802;-62
2022/08/21 02:49:25;;;;;;;;;;;;;;;20.51;100.00;98966.66;5093999;28;861;-62
2022/08/21 02:51:51;;;;;;;;;;;;;;;20.62;100.00;98970.91;5092738;28;1293;-64
2022/08/21 02:54:17;;;;;;;;;;;;;;;20.72;100.00;98964.63;5126825;27;1479;-62
2022/08/21 02:56:43;;;;;;;;;;;;;;;20.80;100.00;98959.34;5093876;28;877;-62
2022/08/21 02:59:10;;;;;;;;;;;;;;;20.85;100.00;98963.50;5093851;28;825;-62
2022/08/21 03:01:37;;;;;;;;;;;;;;;20.86;100.00;98963.00;5093726;28;908;-62
2022/08/21 03:04:04;;;;;;;;;;;;;;;20.88;100.00;98971.69;5092529;28;1960;-62
2022/08/21 03:06:30;;;;;;;;;;;;;;;20.86;100.00;98963.00;5093669;28;802;-62
2022/08/21 03:08:57;;;;;;;;;;;;;;;20.84;100.00;98971.13;5093657;28;1090;-62
2022/08/21 03:11:23;;;;;;;;;;;;;;;20.82;100.00;98968.06;5093264;28;1426;-62
2022/08/21 03:13:50;;;;;;;;;;;;;;;20.79;100.00;98967.00;5093782;28;833;-62
2022/08/21 03:16:16;;;;;;;;;;;;;;;20.75;100.00;98969.25;5093430;28;845;-62
2022/08/21 03:18:43;;;;;;;;;;;;;;;20.73;100.00;98968.97;5093468;28;841;-62
2022/08/21 03:21:10;;;;;;;;;;;;;;;20.70;100.00;98966.41;5093406;28;842;-62
2022/08/21 03:23:39;;;;;;;;;;;;;;;20.68;100.00;98966.13;5093249;28;1949;-62
2022/08/21 03:26:06;;;;;;;;;;;;;;;20.63;100.00;98964.78;5093331;28;960;-62
2022/08/21 03:28:33;;;;;;;;;;;;;;;20.62;100.00;98966.03;5093230;28;873;-62
2022/08/21 03:31:00;;;;;;;;;;;;;;;20.64;99.62;98976.78;5093509;28;880;-62
2022/08/21 03:33:27;;;;;;;;;;;;;;;20.66;98.94;98980.66;5093129;28;853;-62
2022/08/21 03:35:58;;;;;;;;;;;;;;;20.72;98.04;98977.91;5093084;28;966;-62
2022/08/21 03:38:26;;;;;;;;;;;;;;;20.78;97.17;98975.91;5093220;28;876;-62
2022/08/21 03:40:53;;;;;;;;;;;;;;;20.78;96.76;98973.91;5092989;28;830;-62
2022/08/21 03:43:19;;;;;;;;;;;;;;;20.75;96.79;98971.31;5092934;28;1951;-62
2022/08/21 03:45:46;;;;;;;;;;;;;;;20.74;96.69;98978.16;5092812;28;806;-62
2022/08/21 03:48:12;;;;;;;;;;;;;;;20.71;96.62;98976.34;5092874;28;802;-62
2022/08/21 03:50:41;;;;;;;;;;;;;;;20.69;96.86;98968.41;5092972;28;810;-62
2022/08/21 03:53:11;;;;;;;;;;;;;;;20.70;96.55;98975.59;5092803;28;814;-62
2022/08/21 03:55:38;;;;;;;;;;;;;;;20.74;96.25;98966.94;5092732;28;881;-62
2022/08/21 03:58:05;;;;;;;;;;;;;;;20.80;94.97;98967.78;5092982;28;847;-62
2022/08/21 04:00:31;;;;;;;;;;;;;;;20.90;93.93;98974.78;5125496;27;822;-62
2022/08/21 04:02:58;;;;;;;;;;;;;;;20.98;93.39;98975.91;5092708;28;1882;-62
2022/08/21 04:05:27;;;;;;;;;;;;;;;21.03;92.95;98966.00;5092807;28;855;-62
2022/08/21 04:07:56;;;;;;;;;;;;;;;21.09;92.60;98978.06;5092539;28;813;-62
2022/08/21 04:10:24;;;;;;;;;;;;;;;21.20;91.54;98983.00;5091203;28;917;-62
2022/08/21 04:12:54;;;;;;;;;;;;;;;21.34;90.44;98984.94;5092235;28;1395;-62
2022/08/21 04:15:24;;;;;;;;;;;;;;;21.38;90.29;98985.50;5092446;28;798;-62
2022/08/21 04:17:52;;;;;;;;;;;;;;;21.45;89.70;98987.13;5092439;28;853;-62
2022/08/21 04:20:18;;;;;;;;;;;;;;;21.50;89.48;98988.44;5092299;28;814;-62
2022/08/21 04:22:45;;;;;;;;;;;;;;;21.50;89.29;98991.25;5092262;28;803;-62
2022/08/21 04:25:14;;;;;;;;;;;;;;;21.50;89.06;98997.63;5092258;28;807;-62
2022/08/21 04:27:41;;;;;;;;;;;;;;;21.53;89.00;98993.84;5092093;28;1385;-62
2022/08/21 04:30:08;;;;;;;;;;;;;;;21.50;89.84;99000.44;5092130;28;794;-62
2022/08/21 04:32:36;;;;;;;;;;;;;;;21.46;90.53;98994.28;5092080;28;855;-62
2022/08/21 04:35:04;;;;;;;;;;;;;;;21.46;91.31;98999.88;5091655;28;822;-62
2022/08/21 04:37:31;;;;;;;;;;;;;;;21.53;91.29;99007.91;5092005;28;861;-62
2022/08/21 04:39:58;;;;;;;;;;;;;;;21.64;91.09;99004.41;5091980;28;834;-62
2022/08/21 04:42:25;;;;;;;;;;;;;;;21.73;91.22;99003.47;5091922;28;829;-62
2022/08/21 04:44:52;;;;;;;;;;;;;;;21.78;91.31;99011.94;5091856;28;1882;-62
2022/08/21 04:47:19;;;;;;;;;;;;;;;21.82;91.83;99006.84;5091853;28;925;-62
2022/08/21 04:49:45;;;;;;;;;;;;;;;21.92;91.77;99006.69;5091878;28;806;-62
2022/08/21 04:52:13;;;;;;;;;;;;;;;21.97;91.71;99000.31;5091766;28;864;-61
2022/08/21 04:54:40;;;;;;;;;;;;;;;22.02;91.75;99006.00;5091880;28;806;-61
2022/08/21 04:57:08;;;;;;;;;;;;;;;22.18;91.61;99004.53;5091670;28;853;-61
2022/08/21 04:59:40;;;;;;;;;;;;;;;22.47;90.35;99011.16;5091768;28;848;-61
2022/08/21 05:02:08;;;;;;;;;;;;;;;22.75;88.33;99004.88;5092151;28;821;-61
2022/08/21 05:04:38;;;;;;;;;;;;;;;22.98;86.99;99008.53;5090459;28;1885;-61
2022/08/21 05:07:07;;;;;;;;;;;;;;;23.18;85.70;99007.59;5091633;28;873;-61
2022/08/21 05:09:34;;;;;;;;;;;;;;;23.35;84.09;99002.00;5091633;28;826;-61
2022/08/21 05:12:02;;;;;;;;;;;;;;;23.55;82.70;99000.97;5091356;28;1365;-61
2022/08/21 05:14:28;;;;;;;;;;;;;;;23.76;81.45;98998.72;5091596;28;810;-61
2022/08/21 05:16:54;;;;;;;;;;;;;;;23.96;80.46;99003.31;5091490;28;863;-61
2022/08/21 05:19:21;;;;;;;;;;;;;;;24.15;79.17;99007.13;5091603;28;802;-61
2022/08/21 05:21:47;;;;;;;;;;;;;;;24.29;78.13;99013.03;5091501;28;806;-61
2022/08/21 05:24:14;;;;;;;;;;;;;;;24.40;77.47;99016.56;5091441;28;1972;-61
2022/08/21 05:26:40;;;;;;;;;;;;;;;24.53;76.44;99024.53;5091531;28;810;-61
2022/08/21 05:29:07;;;;;;;;;;;;;;;24.68;76.08;99024.22;5091711;28;870;-61
2022/08/21 05:31:34;;;;;;;;;;;;;;;24.89;75.35;99023.91;5091399;28;849;-61
2022/08/21 05:34:00;;;;;;;;;;;;;;;25.05;74.44;99025.88;5091438;28;814;-61
2022/08/21 05:36:27;;;;;;;;;;;;;;;25.21;73.25;99025.03;5091402;28;806;-61
2022/08/21 05:38:53;;;;;;;;;;;;;;;25.45;71.68;99023.59;5091310;28;859;-61
2022/08/21 05:41:20;;;;;;;;;;;;;;;25.64;69.79;99013.16;5091466;28;833;-61
2022/08/21 05:43:47;;;;;;;;;;;;;;;25.80;68.15;99014.34;5091584;28;1890;-61
2022/08/21 05:46:13;;;;;;;;;;;;;;;25.93;66.64;99013.75;5092012;28;890;-61
2022/08/21 05:48:40;;;;;;;;;;;;;;;26.02;65.19;99010.56;5095493;28;940;-61
2022/08/21 05:51:11;;;;;;;;;;;;;;;26.19;63.43;99018.91;5095464;28;849;-61
2022/08/21 05:53:37;;;;;;;;;;;;;;;26.39;63.00;99012.00;5095044;28;838;-61
2022/08/21 05:59:12;;;;;;;;;;;;;;;26.71;60.02;99002.91;5095065;28;621;-61
2022/08/21 06:01:40;;;;;;;;;;;;;;;27.07;59.74;99000.63;5095005;28;822;-61
2022/08/21 06:04:07;;;;;;;;;;;;;;;27.62;58.76;99005.28;5095174;28;1962;-61
2022/08/21 06:06:34;;;;;;;;;;;;;;;28.10;56.11;98998.53;5094909;28;798;-61
2022/08/21 06:09:01;;;;;;;;;;;;;;;28.38;55.19;99002.94;5094803;28;798;-61
2022/08/21 06:14:37;;;;;;;;;;;;;;;28.68;52.24;99007.53;5081811;28;1403;-61
2022/08/21 06:17:04;;;;;;;;;;;;;;;28.59;53.20;99008.75;5094627;28;815;-61
2022/08/21 06:19:31;;;;;;;;;;;;;;;28.44;52.54;99014.16;5094632;28;807;-61
2022/08/21 06:21:57;;;;;;;;;;;;;;;28.38;53.23;99017.13;5094602;28;849;-61
2022/08/21 06:24:24;;;;;;;;;;;;;;;28.55;53.11;99016.84;5093026;28;1918;-61
2022/08/21 06:26:51;;;;;;;;;;;;;;;28.96;51.63;99015.47;5094517;28;889;-61
2022/08/21 06:29:19;;;;;;;;;;;;;;;29.15;50.34;99014.56;5094454;28;861;-61
2022/08/21 06:31:47;;;;;;;;;;;;;;;29.40;50.08;99010.13;5094446;28;1001;-61
2022/08/21 06:34:14;;;;;;;;;;;;;;;29.95;48.58;99002.88;5094321;28;828;-61
2022/08/21 06:36:41;;;;;;;;;;;;;;;30.38;47.40;99002.25;5093034;28;1285;-61
2022/08/21 06:39:08;;;;;;;;;;;;;;;31.08;46.15;98998.44;5093014;28;1302;-61
2022/08/21 06:41:34;;;;;;;;;;;;;;;31.78;43.87;99004.34;5094069;28;845;-61
2022/08/21 06:44:01;;;;;;;;;;;;;;;32.26;42.90;99005.28;5094413;28;1893;-61
2022/08/21 06:46:29;;;;;;;;;;;;;;;32.73;42.00;99006.75;5094118;28;834;-61
2022/08/21 06:48:56;;;;;;;;;;;;;;;33.21;41.26;99008.09;5094098;28;834;-61
2022/08/21 06:51:25;;;;;;;;;;;;;;;33.33;40.04;99009.16;5093988;28;814;-60
2022/08/21 06:53:52;;;;;;;;;;;;;;;32.82;40.06;99008.22;5094224;28;798;-61
2022/08/21 06:56:19;;;;;;;;;;;;;;;32.50;40.99;99006.00;5093574;28;791;-61
2022/08/21 06:58:45;;;;;;;;;;;;;;;32.54;41.04;99006.41;5094235;28;802;-61
2022/08/21 07:01:12;;;;;;;;;;;;;;;32.49;40.75;98999.50;5092467;28;2031;-61
2022/08/21 07:03:40;;;;;;;;;;;;;;;32.38;41.08;99002.78;5094110;28;1925;-61
2022/08/21 07:06:08;;;;;;;;;;;;;;;32.52;40.96;98986.94;5093946;28;790;-61
2022/08/21 07:08:35;;;;;;;;;;;;;;;33.07;39.48;98988.28;5093645;28;857;-61
2022/08/21 07:11:03;;;;;;;;;;;;;;;33.35;39.02;98995.00;5093641;28;861;-61
2022/08/21 07:13:29;;;;;;;;;;;;;;;34.06;38.62;98988.22;5093322;28;1288;-60
2022/08/21 07:15:56;;;;;;;;;;;;;;;34.69;37.56;98982.03;5093618;28;838;-60
2022/08/21 07:18:22;;;;;;;;;;;;;;;35.31;36.21;98976.28;5093638;28;831;-60
2022/08/21 07:20:50;;;;;;;;;;;;;;;34.71;36.66;98981.47;5093476;28;856;-60
2022/08/21 07:23:29;;;;;;;;;;;;;;;33.11;39.55;98985.78;5093263;28;1906;-60
2022/08/21 07:25:55;;;;;;;;;;;;;;;32.85;39.43;98981.31;5092115;28;838;-60
2022/08/21 07:28:21;;;;;;;;;;;;;;;32.02;40.96;98980.91;5093312;28;802;-60
2022/08/21 07:30:51;;;;;;;;;;;;;;;32.09;40.83;98982.25;5091914;28;1203;-60
2022/08/21 07:33:18;;;;;;;;;;;;;;;30.99;42.88;98972.56;5093363;28;865;-60
2022/08/21 07:35:45;;;;;;;;;;;;;;;30.16;44.51;98980.81;5093757;28;834;-60
2022/08/21 07:38:11;;;;;;;;;;;;;;;30.24;45.58;98969.47;5093734;28;763;-60
2022/08/21 07:40:38;;;;;;;;;;;;;;;32.29;42.03;98981.28;5091602;28;1405;-60
2022/08/21 07:43:05;;;;;;;;;;;;;;;32.37;41.24;98971.91;5092928;28;1890;-60
2022/08/21 07:45:32;;;;;;;;;;;;;;;31.19;43.06;98968.03;5092926;28;873;-60
2022/08/21 07:47:59;;;;;;;;;;;;;;;30.22;45.27;98969.28;5092883;28;821;-60
2022/08/21 07:50:26;;;;;;;;;;;;;;;29.77;46.26;98968.38;5092838;28;833;-61
2022/08/21 07:55:57;;;;;;;;;;;;;;;31.64;44.39;98958.78;5092862;28;614;-60
2022/08/21 07:58:24;;;;;;;;;;;;;;;32.65;40.80;98957.38;5092657;28;823;-60
2022/08/21 08:00:50;;;;;;;;;;;;;;;33.30;39.77;98958.78;5092718;28;838;-60
2022/08/21 08:03:17;;;;;;;;;;;;;;;32.69;39.46;98945.50;5092681;28;1885;-61
2022/08/21 08:05:45;;;;;;;;;;;;;;;31.34;42.49;98951.72;5092534;28;807;-60
2022/08/21 08:08:11;;;;;;;;;;;;;;;30.40;44.90;98956.84;5091859;28;958;-61
2022/08/21 08:10:39;;;;;;;;;;;;;;;29.84;45.63;98956.28;5092376;28;791;-61
2022/08/21 08:13:06;;;;;;;;;;;;;;;29.73;46.82;98959.41;5092506;28;822;-61
2022/08/21 08:15:32;;;;;;;;;;;;;;;29.97;46.25;98961.13;5092130;28;1522;-61
2022/08/21 08:18:00;;;;;;;;;;;;;;;30.21;46.09;98953.47;5092572;28;858;-61
2022/08/21 08:20:29;;;;;;;;;;;;;;;30.30;45.76;98950.16;5092302;28;806;-61
2022/08/21 08:22:55;;;;;;;;;;;;;;;31.10;44.17;98943.66;5092271;28;865;-60
2022/08/21 08:25:26;;;;;;;;;;;;;;;32.26;42.04;98941.63;5092231;28;846;-60
2022/08/21 08:27:52;;;;;;;;;;;;;;;32.68;40.25;98941.16;5092233;28;833;-61
2022/08/21 08:30:20;;;;;;;;;;;;;;;31.87;41.85;98946.63;5092134;28;798;-61
2022/08/21 08:32:47;;;;;;;;;;;;;;;32.09;42.16;98933.66;5092148;28;786;-60
2022/08/21 08:35:14;;;;;;;;;;;;;;;32.61;40.65;98942.69;5092063;28;794;-61
2022/08/21 08:37:42;;;;;;;;;;;;;;;32.45;41.02;98939.09;5092014;28;861;-61
2022/08/21 08:40:14;;;;;;;;;;;;;;;33.49;38.90;98936.13;5091964;28;837;-61
2022/08/21 08:42:41;;;;;;;;;;;;;;;34.74;37.50;98932.25;5091949;28;802;-61
2022/08/21 08:45:12;;;;;;;;;;;;;;;34.37;36.79;98931.31;5092020;28;2220;-61
2022/08/21 08:47:42;;;;;;;;;;;;;;;33.40;39.05;98927.41;5091876;28;885;-62
2022/08/21 08:50:11;;;;;;;;;;;;;;;33.46;38.71;98928.69;5092164;28;865;-61
2022/08/21 08:52:43;;;;;;;;;;;;;;;34.38;37.67;98926.38;5091798;28;866;-61
2022/08/21 08:55:14;;;;;;;;;;;;;;;35.46;35.22;98920.72;5091859;28;849;-61
2022/08/21 08:57:44;;;;;;;;;;;;;;;35.73;35.10;98905.56;5092039;28;830;-61
2022/08/21 09:00:11;;;;;;;;;;;;;;;35.12;34.67;98910.88;5091680;28;794;-61
2022/08/21 09:02:42;;;;;;;;;;;;;;;33.68;36.64;98909.06;5091634;28;957;-61
2022/08/21 09:05:15;;;;;;;;;;;;;;;33.53;37.72;98909.94;5091616;28;1944;-61
2022/08/21 09:07:47;;;;;;;;;;;;;;;33.48;37.98;98899.47;5091682;28;814;-61
2022/08/21 09:10:17;;;;;;;;;;;;;;;32.49;39.42;98907.25;5091513;28;814;-61
2022/08/21 09:13:00;;;;;;;;;;;;;;;31.66;40.60;98889.69;5091641;28;858;-61
2022/08/21 09:15:46;;;;;;;;;;;;;;;31.16;41.87;98895.00;5091320;28;1277;-62
2022/08/21 09:18:16;;;;;;;;;;;;;;;31.31;42.27;98889.28;5090246;28;1293;-61
2022/08/21 09:20:46;;;;;;;;;;;;;;;32.00;40.57;98889.28;5094211;28;771;-61
2022/08/21 09:23:21;;;;;;;;;;;;;;;33.22;38.53;98887.25;5095938;28;1965;-61
2022/08/21 09:26:06;;;;;;;;;;;;;;;33.28;38.23;98876.31;5095709;28;802;-61
2022/08/21 09:28:35;;;;;;;;;;;;;;;32.84;39.08;98881.75;5095683;28;802;-62
2022/08/21 09:31:22;;;;;;;;;;;;;;;32.29;40.40;98869.78;5095576;28;861;-62
2022/08/21 10:02:29;;;;;;;;;;;;;;;34.65;36.30;98837.50;5496001;22;1510;-61
2022/08/21 10:04:59;;;;;;;;;;;;;;;35.04;35.51;98834.84;5054842;28;1973;-61
2022/08/21 10:07:28;;;;;;;;;;;;;;;35.32;34.40;98839.94;5054731;28;825;-61
2022/08/21 10:10:01;;;;;;;;;;;;;;;35.64;34.65;98843.09;5054542;28;885;-61
2022/08/21 10:15:49;;;;;;;;;;;;;;;35.62;34.40;98840.03;5054532;28;1138;-61
2022/08/21 10:18:38;;;;;;;;;;;;;;;35.93;34.26;98834.47;5054534;28;865;-60
2022/08/21 10:21:04;;;;;;;;;;;;;;;36.23;33.85;98836.00;5054450;28;873;-60
2022/08/21 10:23:41;;;;;;;;;;;;;;;36.21;34.61;98838.75;5054314;28;1882;-60
2022/08/21 10:26:19;;;;;;;;;;;;;;;36.14;34.99;98845.41;5053035;28;1342;-60
2022/08/21 10:28:55;;;;;;;;;;;;;;;35.77;35.51;98840.50;5053007;28;1489;-62
2022/08/21 10:31:30;;;;;;;;;;;;;;;34.36;37.31;98844.53;5053607;28;806;-61
2022/08/21 10:34:00;;;;;;;;;;;;;;;33.37;39.31;98840.56;5054441;28;826;-62
2022/08/21 10:36:40;;;;;;;;;;;;;;;32.99;40.36;98838.75;5054402;28;791;-62
2022/08/21 10:39:17;;;;;;;;;;;;;;;32.98;40.13;98842.19;5054123;28;916;-62
2022/08/21 10:41:43;;;;;;;;;;;;;;;33.47;40.03;98841.44;5054040;28;916;-62
2022/08/21 10:44:21;;;;;;;;;;;;;;;34.02;39.73;98842.44;5053961;28;1894;-61
2022/08/21 10:47:06;;;;;;;;;;;;;;;33.58;40.70;98848.03;5053851;28;857;-62
2022/08/21 10:49:43;;;;;;;;;;;;;;;33.00;42.48;98845.97;5053862;28;901;-62
2022/08/21 10:52:27;;;;;;;;;;;;;;;32.08;44.66;98844.31;5054377;28;842;-63
2022/08/21 10:55:17;;;;;;;;;;;;;;;31.43;46.37;98844.78;5053764;28;932;-63
2022/08/21 10:57:57;;;;;;;;;;;;;;;30.87;48.14;98843.75;5048239;28;1183;-62
2022/08/21 11:00:28;;;;;;;;;;;;;;;30.65;48.93;98845.97;5053532;28;901;-63
2022/08/21 11:03:06;;;;;;;;;;;;;;;30.81;49.76;98843.16;5053487;28;1221;-63
2022/08/21 11:05:35;;;;;;;;;;;;;;;31.90;48.50;98834.81;5053729;28;798;-62
2022/08/21 11:08:14;;;;;;;;;;;;;;;32.20;46.94;98841.81;5053535;28;896;-63
2022/08/21 11:10:48;;;;;;;;;;;;;;;32.33;47.02;98844.41;5053466;28;850;-63
2022/08/21 11:13:34;;;;;;;;;;;;;;;32.24;46.28;98842.19;5053486;28;814;-62
2022/08/21 11:16:17;;;;;;;;;;;;;;;32.33;46.24;98837.94;5053474;28;869;-62
2022/08/21 11:18:50;;;;;;;;;;;;;;;32.28;46.38;98842.50;5053328;28;838;-63
2022/08/21 11:21:38;;;;;;;;;;;;;;;32.17;46.74;98840.09;5053320;28;850;-63
2022/08/21 11:24:24;;;;;;;;;;;;;;;31.83;48.13;98843.41;5053208;28;1882;-63
2022/08/21 11:26:54;;;;;;;;;;;;;;;31.36;48.93;98810.50;5053481;28;896;-63
2022/08/21 11:29:24;;;;;;;;;;;;;;;31.32;49.08;98831.63;5051839;28;956;-63
2022/08/21 11:32:09;;;;;;;;;;;;;;;31.11;49.67;98837.53;5053131;28;873;-62
2022/08/21 11:35:08;;;;;;;;;;;;;;;30.74;50.83;98833.25;5053025;28;873;-63
2022/08/21 11:37:52;;;;;;;;;;;;;;;30.25;52.32;98834.97;5052946;28;841;-63
2022/08/21 11:40:37;;;;;;;;;;;;;;;30.21;52.65;98831.72;5052906;28;873;-63
2022/08/21 11:43:10;;;;;;;;;;;;;;;30.10;52.47;98829.94;5051922;28;916;-63
2022/08/21 11:46:04;;;;;;;;;;;;;;;29.74;53.46;98824.25;5052788;28;857;-61
2022/08/21 11:48:40;;;;;;;;;;;;;;;29.45;54.05;98817.78;5048876;28;1201;-63
2022/08/21 11:51:18;;;;;;;;;;;;;;;29.24;55.02;98812.13;5052742;28;834;-63
2022/08/21 11:54:17;;;;;;;;;;;;;;;29.00;55.70;98808.28;5052641;28;861;-63
2022/08/21 11:56:47;;;;;;;;;;;;;;;28.89;56.12;98808.53;5010737;28;1188;-62
2022/08/21 11:59:20;;;;;;;;;;;;;;;28.80;56.07;98804.09;5010717;28;802;-62
2022/08/21 12:01:50;;;;;;;;;;;;;;;28.50;57.29;98810.25;5010240;28;1251;-62
2022/08/21 12:04:16;;;;;;;;;;;;;;;27.79;59.87;98814.78;5011182;28;1918;-62
2022/08/21 12:06:44;;;;;;;;;;;;;;;27.20;62.23;98809.13;5010701;28;998;-61
2022/08/21 12:09:29;;;;;;;;;;;;;;;26.75;65.63;98799.28;5010985;28;835;-62
2022/08/21 12:12:14;;;;;;;;;;;;;;;26.28;67.70;98800.47;5010638;28;818;-61
2022/08/21 12:14:48;;;;;;;;;;;;;;;25.98;69.88;98802.66;5010528;28;1060;-62
2022/08/21 12:17:22;;;;;;;;;;;;;;;26.01;70.62;98805.22;5010610;28;830;-62
2022/08/21 12:20:01;;;;;;;;;;;;;;;26.18;71.28;98798.53;5010366;28;913;-62
2022/08/21 12:22:38;;;;;;;;;;;;;;;26.55;70.28;98780.78;5010526;28;866;-62
2022/08/21 12:25:11;;;;;;;;;;;;;;;27.28;66.97;98788.13;5010580;28;1969;-61
2022/08/21 12:27:49;;;;;;;;;;;;;;;28.47;62.51;98788.59;5010350;28;1098;-61
2022/08/21 12:30:27;;;;;;;;;;;;;;;30.95;54.97;98778.94;5009990;28;1379;-61
2022/08/21 12:33:02;;;;;;;;;;;;;;;32.47;49.63;98776.28;5028775;28;1052;-61
2022/08/21 12:38:59;;;;;;;;;;;;;;;32.94;44.84;98779.63;5050731;28;1090;-61
2022/08/21 12:41:27;;;;;;;;;;;;;;;32.72;45.07;98775.59;5050570;28;1323;-61
2022/08/21 12:44:14;;;;;;;;;;;;;;;32.67;44.69;98770.88;5051745;28;1951;-62
2022/08/21 12:46:52;;;;;;;;;;;;;;;33.75;42.01;98762.13;5051661;28;1270;-61
2022/08/21 12:49:35;;;;;;;;;;;;;;;33.76;40.64;98769.38;5051759;28;842;-62
2022/08/21 12:52:09;;;;;;;;;;;;;;;33.60;40.60;98768.78;5067049;28;1068;-62
2022/08/21 12:54:40;;;;;;;;;;;;;;;33.36;40.28;98776.81;5051340;28;778;-61
2022/08/21 12:57:23;;;;;;;;;;;;;;;33.11;40.85;98776.84;5052302;28;786;-61
2022/08/21 13:00:12;;;;;;;;;;;;;;;33.94;40.00;98768.00;5051483;28;883;-61
2022/08/21 13:02:52;;;;;;;;;;;;;;;34.77;38.21;98761.00;5051315;28;1261;-62
2022/08/21 13:05:40;;;;;;;;;;;;;;;35.33;36.83;98751.66;5051204;28;1988;-61
2022/08/21 13:08:13;;;;;;;;;;;;;;;35.05;37.05;98750.97;5051484;28;795;-62
2022/08/21 13:10:41;;;;;;;;;;;;;;;34.08;38.15;98753.34;5051440;28;810;-62
2022/08/21 13:13:15;;;;;;;;;;;;;;;33.41;39.53;98760.72;5051489;28;861;-62
2022/08/21 13:15:48;;;;;;;;;;;;;;;32.88;40.66;98757.00;5050304;28;1669;-62
2022/08/21 13:18:30;;;;;;;;;;;;;;;32.25;41.81;98762.88;5066821;28;1265;-62
2022/08/21 13:21:24;;;;;;;;;;;;;;;31.61;43.17;98754.34;5051621;28;893;-62
2022/08/21 13:24:08;;;;;;;;;;;;;;;31.11;44.10;98756.84;5051301;28;1881;-62
2022/08/21 13:26:37;;;;;;;;;;;;;;;30.74;45.37;98756.25;5051396;28;798;-63
2022/08/21 13:29:10;;;;;;;;;;;;;;;30.61;46.08;98760.03;5051138;28;869;-62
2022/08/21 13:31:48;;;;;;;;;;;;;;;30.52;46.21;98755.66;5051569;28;821;-62
2022/08/21 13:34:17;;;;;;;;;;;;;;;30.41;46.61;98756.00;5051459;28;883;-62
2022/08/21 13:37:21;;;;;;;;;;;;;;;30.39;47.33;98749.38;5051230;28;888;-62
2022/08/21 13:39:51;;;;;;;;;;;;;;;30.45;46.92;98747.84;5048985;28;1056;-63
2022/08/21 13:45:31;;;;;;;;;;;;;;;30.38;45.86;98737.19;5050451;28;1899;-62
2022/08/21 14:00:24;;;;;;;;;;;;;;;32.81;40.75;98745.59;5051578;28;597;-62
2022/08/21 14:03:00;;;;;;;;;;;;;;;32.99;40.16;98741.44;5049438;28;1247;-62
2022/08/21 14:05:28;;;;;;;;;;;;;;;33.00;39.69;98742.94;5050915;28;1975;-62
2022/08/21 14:08:01;;;;;;;;;;;;;;;33.01;40.53;98740.84;5053571;28;814;-62
2022/08/21 14:10:28;;;;;;;;;;;;;;;33.13;40.11;98731.22;5054700;28;798;-62
2022/08/21 14:13:01;;;;;;;;;;;;;;;33.33;40.20;98734.28;5054624;28;807;-62
2022/08/21 14:15:30;;;;;;;;;;;;;;;33.21;40.10;98736.13;5054566;28;919;-62
2022/08/21 14:18:17;;;;;;;;;;;;;;;32.87;40.76;98749.72;5054465;28;806;-62
2022/08/21 14:20:45;;;;;;;;;;;;;;;32.79;41.11;98751.88;5053048;28;1167;-63